createdAt,value
2016-05-03T00:00:03.021Z,0
2016-05-03T00:01:02.852Z,0
2016-05-03T00:02:02.980Z,0
2016-05-03T00:03:02.795Z,0
2016-05-03T00:04:02.938Z,0
2016-05-03T00:05:02.754Z,0
2016-05-03T00:06:03.022Z,0
2016-05-03T00:07:02.712Z,0
2016-05-03T00:08:02.840Z,0
2016-05-03T00:09:02.826Z,0
2016-05-03T00:10:02.799Z,0
2016-05-03T00:11:02.770Z,0
2016-05-03T00:12:02.601Z,0
2016-05-03T00:13:02.729Z,0
2016-05-03T00:14:02.715Z,0
2016-05-03T00:15:02.687Z,0
2016-05-03T00:16:02.659Z,0
2016-05-03T00:17:02.661Z,0
2016-05-03T00:18:02.617Z,0
2016-05-03T00:19:02.604Z,0
2016-05-03T00:20:02.560Z,0
2016-05-03T00:21:02.562Z,0
2016-05-03T00:22:03.643Z,0
2016-05-03T00:23:02.506Z,0
2016-05-03T00:24:02.336Z,0
2016-05-03T00:25:02.480Z,0
2016-05-03T00:26:02.465Z,0
2016-05-03T00:27:02.440Z,0
2016-05-03T00:28:02.501Z,0
2016-05-03T00:29:02.381Z,0
2016-05-03T00:30:02.357Z,0
2016-05-03T00:31:02.343Z,0
2016-05-03T00:32:02.332Z,0
2016-05-03T00:33:02.350Z,0
2016-05-03T00:34:02.384Z,0
2016-05-03T00:35:02.245Z,0
2016-05-03T00:36:02.218Z,0
2016-05-03T00:37:02.345Z,0
2016-05-03T00:38:02.179Z,0
2016-05-03T00:39:01.994Z,0
2016-05-03T00:40:01.981Z,0
2016-05-03T00:41:02.124Z,0
2016-05-03T00:42:02.095Z,0
2016-05-03T00:43:02.068Z,0
2016-05-03T00:44:02.054Z,0
2016-05-03T00:45:02.041Z,0
2016-05-03T00:46:01.997Z,0
2016-05-03T00:47:01.828Z,0
2016-05-03T00:48:01.971Z,0
2016-05-03T00:49:01.943Z,0
2016-05-03T00:50:01.929Z,0
2016-05-03T00:51:01.901Z,0
2016-05-03T00:52:02.389Z,0
2016-05-03T00:53:01.687Z,0
2016-05-03T00:54:01.862Z,0
2016-05-03T00:55:01.818Z,0
2016-05-03T00:56:01.805Z,0
2016-05-03T00:57:01.761Z,0
2016-05-03T00:58:01.748Z,0
2016-05-03T00:59:01.735Z,0
2016-05-03T01:00:01.691Z,0
2016-05-03T01:01:01.678Z,0
2016-05-03T01:02:01.649Z,0
2016-05-03T01:03:01.481Z,0
2016-05-03T01:04:01.608Z,0
2016-05-03T01:05:01.594Z,0
2016-05-03T01:06:01.411Z,0
2016-05-03T01:07:01.679Z,0
2016-05-03T01:08:01.525Z,0
2016-05-03T01:09:01.496Z,0
2016-05-03T01:10:01.484Z,0
2016-05-03T01:11:01.454Z,0
2016-05-03T01:12:01.427Z,0
2016-05-03T01:13:01.429Z,0
2016-05-03T01:14:01.228Z,0
2016-05-03T01:15:01.372Z,0
2016-05-03T01:16:01.203Z,0
2016-05-03T01:17:01.331Z,0
2016-05-03T01:18:01.317Z,0
2016-05-03T01:19:01.290Z,0
2016-05-03T01:20:01.292Z,0
2016-05-03T01:21:01.248Z,0
2016-05-03T01:22:02.109Z,0
2016-05-03T01:23:01.206Z,0
2016-05-03T01:24:01.193Z,0
2016-05-03T01:25:01.134Z,0
2016-05-03T01:26:01.120Z,0
2016-05-03T01:27:01.108Z,0
2016-05-03T01:28:00.939Z,0
2016-05-03T01:29:00.925Z,0
2016-05-03T01:30:01.037Z,0
2016-05-03T01:31:01.024Z,0
2016-05-03T01:32:00.981Z,0
2016-05-03T01:33:00.999Z,0
2016-05-03T01:34:00.955Z,0
2016-05-03T01:35:00.786Z,0
2016-05-03T01:36:00.913Z,0
2016-05-03T01:37:00.744Z,0
2016-05-03T01:38:00.856Z,0
2016-05-03T01:39:00.843Z,0
2016-05-03T01:40:00.814Z,0
2016-05-03T01:41:00.802Z,0
2016-05-03T01:42:00.789Z,0
2016-05-03T01:43:00.744Z,0
2016-05-03T01:44:00.747Z,0
2016-05-03T01:45:00.562Z,0
2016-05-03T01:46:00.690Z,0
2016-05-03T01:47:00.662Z,0
2016-05-03T01:48:00.633Z,0
2016-05-03T01:49:00.479Z,0
2016-05-03T01:50:00.607Z,0
2016-05-03T01:51:00.579Z,0
2016-05-03T01:52:00.925Z,0
2016-05-03T01:53:00.538Z,0
2016-05-03T01:54:00.509Z,0
2016-05-03T01:55:00.479Z,0
2016-05-03T01:56:00.312Z,0
2016-05-03T01:57:00.454Z,0
2016-05-03T01:58:00.269Z,0
2016-05-03T01:59:00.397Z,0
2016-05-03T02:00:00.368Z,0
2016-05-03T02:01:00.356Z,0
2016-05-03T02:02:00.327Z,0
2016-05-03T02:03:00.314Z,0
2016-05-03T02:04:00.129Z,0
2016-05-03T02:05:00.257Z,0
2016-05-03T02:06:00.245Z,0
2016-05-03T02:07:00.777Z,0
2016-05-03T02:08:00.219Z,0
2016-05-03T02:09:00.033Z,0
2016-05-03T02:10:00.161Z,0
2016-05-03T02:11:00.164Z,0
2016-05-03T02:11:59.947Z,0
2016-05-03T02:13:00.075Z,0
2016-05-03T02:13:59.922Z,0
2016-05-03T02:15:00.033Z,0
2016-05-03T02:16:00.036Z,0
2016-05-03T02:17:00.008Z,0
2016-05-03T02:17:59.979Z,0
2016-05-03T02:18:59.810Z,0
2016-05-03T02:19:59.938Z,0
2016-05-03T02:20:59.910Z,0
2016-05-03T02:21:59.787Z,0
2016-05-03T02:22:59.868Z,0
2016-05-03T02:23:59.698Z,0
2016-05-03T02:24:59.810Z,0
2016-05-03T02:25:59.798Z,0
2016-05-03T02:26:59.785Z,0
2016-05-03T02:27:59.443Z,0
2016-05-03T02:28:59.728Z,0
2016-05-03T02:29:59.731Z,0
2016-05-03T02:30:59.687Z,0
2016-05-03T02:31:59.517Z,0
2016-05-03T02:32:59.347Z,0
2016-05-03T02:33:59.632Z,0
2016-05-03T02:34:59.587Z,0
2016-05-03T02:35:59.606Z,0
2016-05-03T02:36:59.264Z,0
2016-05-03T02:37:59.378Z,0
2016-05-03T02:38:59.364Z,0
2016-05-03T02:39:59.335Z,0
2016-05-03T02:40:59.478Z,0
2016-05-03T02:41:59.435Z,0
2016-05-03T02:42:59.266Z,0
2016-05-03T02:43:59.394Z,0
2016-05-03T02:44:59.224Z,0
2016-05-03T02:45:59.367Z,0
2016-05-03T02:46:59.339Z,0
2016-05-03T02:47:59.310Z,0
2016-05-03T02:48:59.297Z,0
2016-05-03T02:49:59.112Z,0
2016-05-03T02:50:59.085Z,0
2016-05-03T02:52:00.462Z,0
2016-05-03T02:52:58.886Z,0
2016-05-03T02:53:59.186Z,0
2016-05-03T02:54:59.142Z,0
2016-05-03T02:55:59.004Z,0
2016-05-03T02:56:59.101Z,0
2016-05-03T02:57:58.775Z,0
2016-05-03T02:58:59.059Z,0
2016-05-03T02:59:58.874Z,0
2016-05-03T03:00:58.845Z,0
2016-05-03T03:01:58.989Z,0
2016-05-03T03:02:58.976Z,0
2016-05-03T03:03:58.791Z,0
2016-05-03T03:04:58.622Z,0
2016-05-03T03:05:58.609Z,0
2016-05-03T03:06:59.924Z,0
2016-05-03T03:07:58.864Z,0
2016-05-03T03:08:58.850Z,0
2016-05-03T03:09:58.823Z,0
2016-05-03T03:10:58.638Z,0
2016-05-03T03:11:58.766Z,0
2016-05-03T03:12:58.736Z,0
2016-05-03T03:13:58.709Z,0
2016-05-03T03:14:58.695Z,0
2016-05-03T03:15:58.683Z,0
2016-05-03T03:16:58.498Z,0
2016-05-03T03:17:58.625Z,0
2016-05-03T03:18:58.613Z,0
2016-05-03T03:19:58.599Z,0
2016-05-03T03:20:58.555Z,0
2016-05-03T03:21:58.386Z,0
2016-05-03T03:22:58.530Z,0
2016-05-03T03:23:58.501Z,0
2016-05-03T03:24:58.472Z,0
2016-05-03T03:25:58.459Z,0
2016-05-03T03:26:58.431Z,4
2016-05-03T03:27:58.418Z,4
2016-05-03T03:28:58.390Z,0
2016-05-03T03:29:58.361Z,0
2016-05-03T03:30:58.349Z,0
2016-05-03T03:31:58.163Z,4
2016-05-03T03:32:58.307Z,4
2016-05-03T03:33:58.106Z,4
2016-05-03T03:34:58.249Z,8
2016-05-03T03:35:58.081Z,4
2016-05-03T03:36:58.208Z,4
2016-05-03T03:37:58.554Z,8
2016-05-03T03:38:58.151Z,8
2016-05-03T03:39:58.153Z,8
2016-05-03T03:40:58.125Z,8
2016-05-03T03:41:58.097Z,8
2016-05-03T03:42:58.068Z,8
2016-05-03T03:43:58.056Z,12
2016-05-03T03:44:58.041Z,12
2016-05-03T03:45:57.997Z,12
2016-05-03T03:46:57.985Z,16
2016-05-03T03:47:57.956Z,24
2016-05-03T03:48:57.786Z,20
2016-05-03T03:49:57.915Z,16
2016-05-03T03:50:57.746Z,20
2016-05-03T03:51:57.889Z,20
2016-05-03T03:52:57.844Z,32
2016-05-03T03:53:57.672Z,32
2016-05-03T03:54:57.644Z,48
2016-05-03T03:55:57.791Z,52
2016-05-03T03:56:57.760Z,72
2016-05-03T03:57:57.590Z,80
2016-05-03T03:58:57.717Z,80
2016-05-03T03:59:57.532Z,88
2016-05-03T04:00:57.676Z,88
2016-05-03T04:01:57.663Z,84
2016-05-03T04:02:57.619Z,84
2016-05-03T04:03:57.606Z,88
2016-05-03T04:04:57.577Z,88
2016-05-03T04:05:57.549Z,84
2016-05-03T04:06:57.537Z,80
2016-05-03T04:07:57.351Z,88
2016-05-03T04:08:57.478Z,104
2016-05-03T04:09:57.465Z,116
2016-05-03T04:10:57.453Z,124
2016-05-03T04:11:57.425Z,132
2016-05-03T04:12:57.240Z,124
2016-05-03T04:13:57.227Z,116
2016-05-03T04:14:57.353Z,140
2016-05-03T04:15:57.325Z,152
2016-05-03T04:16:57.313Z,164
2016-05-03T04:17:57.269Z,140
2016-05-03T04:18:57.272Z,120
2016-05-03T04:19:57.086Z,96
2016-05-03T04:20:57.214Z,92
2016-05-03T04:21:57.206Z,84
2016-05-03T04:22:57.223Z,100
2016-05-03T04:23:56.945Z,120
2016-05-03T04:24:57.119Z,144
2016-05-03T04:25:57.294Z,164
2016-05-03T04:26:57.167Z,136
2016-05-03T04:27:57.312Z,120
2016-05-03T04:28:57.315Z,84
2016-05-03T04:29:57.288Z,60
2016-05-03T04:30:57.291Z,52
2016-05-03T04:31:57.278Z,36
2016-05-03T04:32:57.286Z,40
2016-05-03T04:33:57.249Z,60
2016-05-03T04:34:57.242Z,92
2016-05-03T04:35:57.220Z,136
2016-05-03T04:36:57.946Z,128
2016-05-03T04:37:57.186Z,116
2016-05-03T04:38:57.160Z,132
2016-05-03T04:39:57.133Z,148
2016-05-03T04:40:57.108Z,140
2016-05-03T04:41:57.113Z,140
2016-05-03T04:42:57.069Z,160
2016-05-03T04:43:57.057Z,188
2016-05-03T04:44:57.029Z,192
2016-05-03T04:45:57.017Z,204
2016-05-03T04:46:56.989Z,232
2016-05-03T04:47:56.945Z,260
2016-05-03T04:48:56.932Z,324
2016-05-03T04:49:56.904Z,412
2016-05-03T04:50:56.907Z,528
2016-05-03T04:51:57.598Z,632
2016-05-03T04:52:56.851Z,692
2016-05-03T04:53:56.821Z,688
2016-05-03T04:54:56.809Z,704
2016-05-03T04:55:56.765Z,752
2016-05-03T04:56:56.752Z,800
2016-05-03T04:57:56.598Z,852
2016-05-03T04:58:56.539Z,844
2016-05-03T04:59:56.370Z,776
2016-05-03T05:00:56.653Z,716
2016-05-03T05:01:56.640Z,716
2016-05-03T05:02:56.456Z,792
2016-05-03T05:03:56.584Z,764
2016-05-03T05:04:56.555Z,600
2016-05-03T05:05:56.542Z,476
2016-05-03T05:06:57.028Z,440
2016-05-03T05:07:56.813Z,472
2016-05-03T05:08:56.316Z,600
2016-05-03T05:09:56.459Z,700
2016-05-03T05:10:56.430Z,836
2016-05-03T05:11:56.402Z,992
2016-05-03T05:12:56.373Z,1080
2016-05-03T05:13:56.344Z,1072
2016-05-03T05:14:56.316Z,1048
2016-05-03T05:15:56.303Z,1096
2016-05-03T05:16:56.133Z,1200
2016-05-03T05:17:56.261Z,1372
2016-05-03T05:18:56.061Z,1548
2016-05-03T05:19:56.204Z,1668
2016-05-03T05:20:56.160Z,1748
2016-05-03T05:21:56.163Z,1768
2016-05-03T05:22:56.166Z,1552
2016-05-03T05:23:56.090Z,1548
2016-05-03T05:24:55.765Z,1424
2016-05-03T05:25:55.893Z,1108
2016-05-03T05:26:55.879Z,1044
2016-05-03T05:27:56.007Z,1344
2016-05-03T05:28:55.822Z,1288
2016-05-03T05:29:55.950Z,1112
2016-05-03T05:30:55.953Z,1016
2016-05-03T05:31:55.753Z,940
2016-05-03T05:32:55.880Z,860
2016-05-03T05:33:55.711Z,828
2016-05-03T05:34:55.823Z,828
2016-05-03T05:35:55.809Z,860
2016-05-03T05:36:56.156Z,912
2016-05-03T05:37:55.612Z,960
2016-05-03T05:38:55.739Z,1032
2016-05-03T05:39:55.728Z,1128
2016-05-03T05:40:55.527Z,1216
2016-05-03T05:41:55.654Z,1284
2016-05-03T05:42:55.641Z,1304
2016-05-03T05:43:55.613Z,1320
2016-05-03T05:44:55.583Z,1380
2016-05-03T05:45:55.399Z,1480
2016-05-03T05:46:55.527Z,1592
2016-05-03T05:47:55.358Z,1732
2016-05-03T05:48:55.469Z,1888
2016-05-03T05:49:55.457Z,2040
2016-05-03T05:50:55.444Z,2200
2016-05-03T05:51:55.400Z,2368
2016-05-03T05:52:55.230Z,2564
2016-05-03T05:53:55.390Z,2740
2016-05-03T05:54:55.346Z,2900
2016-05-03T05:55:55.004Z,3096
2016-05-03T05:56:55.288Z,3344
2016-05-03T05:57:55.260Z,3616
2016-05-03T05:58:55.246Z,3856
2016-05-03T05:59:55.218Z,3992
2016-05-03T06:00:55.190Z,4076
2016-05-03T06:01:55.161Z,4052
2016-05-03T06:02:55.148Z,3872
2016-05-03T06:03:55.119Z,3520
2016-05-03T06:04:55.092Z,3120
2016-05-03T06:05:55.063Z,2764
2016-05-03T06:06:55.065Z,2484
2016-05-03T06:07:55.036Z,2292
2016-05-03T06:08:54.852Z,2220
2016-05-03T06:09:54.964Z,2252
2016-05-03T06:10:54.811Z,2320
2016-05-03T06:11:54.767Z,2356
2016-05-03T06:12:54.909Z,2408
2016-05-03T06:13:54.724Z,2484
2016-05-03T06:14:54.853Z,2700
2016-05-03T06:15:54.808Z,2984
2016-05-03T06:16:54.827Z,3176
2016-05-03T06:17:54.783Z,3400
2016-05-03T06:18:54.442Z,3796
2016-05-03T06:19:54.741Z,4268
2016-05-03T06:20:54.697Z,4824
2016-05-03T06:21:54.668Z,5460
2016-05-03T06:22:54.796Z,5936
2016-05-03T06:23:54.643Z,6060
2016-05-03T06:24:54.614Z,6176
2016-05-03T06:25:54.273Z,6496
2016-05-03T06:26:54.571Z,6888
2016-05-03T06:27:54.388Z,7284
2016-05-03T06:28:54.359Z,7832
2016-05-03T06:29:54.502Z,8608
2016-05-03T06:30:54.458Z,9196
2016-05-03T06:31:54.445Z,9764
2016-05-03T06:32:54.260Z,10212
2016-05-03T06:33:54.263Z,10420
2016-05-03T06:34:54.218Z,10464
2016-05-03T06:35:54.346Z,10540
2016-05-03T06:36:54.334Z,10752
2016-05-03T06:37:54.306Z,11616
2016-05-03T06:38:54.135Z,13040
2016-05-03T06:39:54.248Z,14600
2016-05-03T06:40:54.219Z,14788
2016-05-03T06:41:54.222Z,14752
2016-05-03T06:42:54.194Z,15604
2016-05-03T06:43:54.181Z,16228
2016-05-03T06:44:54.152Z,16040
2016-05-03T06:45:53.951Z,15396
2016-05-03T06:46:54.094Z,15016
2016-05-03T06:47:53.769Z,13944
2016-05-03T06:48:53.881Z,13364
2016-05-03T06:49:54.041Z,13576
2016-05-03T06:50:53.996Z,13968
2016-05-03T06:51:53.983Z,13840
2016-05-03T06:52:53.689Z,13932
2016-05-03T06:53:53.926Z,13672
2016-05-03T06:54:53.601Z,13520
2016-05-03T06:55:53.899Z,14004
2016-05-03T06:56:53.888Z,15012
2016-05-03T06:57:53.687Z,15380
2016-05-03T06:58:53.830Z,13808
2016-05-03T06:59:53.818Z,14924
2016-05-03T07:00:53.617Z,12504
2016-05-03T07:01:53.760Z,9320
2016-05-03T07:02:53.591Z,10548
2016-05-03T07:03:53.718Z,10624
2016-05-03T07:04:53.565Z,12392
2016-05-03T07:05:53.521Z,14876
2016-05-03T07:06:53.477Z,15644
2016-05-03T07:07:53.354Z,14700
2016-05-03T07:08:53.607Z,13072
2016-05-03T07:09:53.578Z,11804
2016-05-03T07:10:53.550Z,9140
2016-05-03T07:11:53.553Z,10432
2016-05-03T07:12:53.525Z,13304
2016-05-03T07:13:53.496Z,14132
2016-05-03T07:14:53.483Z,11100
2016-05-03T07:15:53.314Z,9952
2016-05-03T07:16:53.285Z,11368
2016-05-03T07:17:53.256Z,11988
2016-05-03T07:18:53.228Z,12364
2016-05-03T07:19:53.371Z,10796
2016-05-03T07:20:53.186Z,8224
2016-05-03T07:21:53.174Z,9508
2016-05-03T07:22:53.177Z,8132
2016-05-03T07:23:53.288Z,8900
2016-05-03T07:24:53.260Z,11964
2016-05-03T07:25:53.231Z,13024
2016-05-03T07:26:53.218Z,12428
2016-05-03T07:27:53.049Z,12348
2016-05-03T07:28:53.176Z,11384
2016-05-03T07:29:53.008Z,10784
2016-05-03T07:30:53.135Z,10652
2016-05-03T07:31:53.107Z,10780
2016-05-03T07:32:52.938Z,11124
2016-05-03T07:33:53.081Z,11064
2016-05-03T07:34:53.037Z,9896
2016-05-03T07:35:52.867Z,10248
2016-05-03T07:36:52.995Z,11340
2016-05-03T07:37:53.342Z,11960
2016-05-03T07:38:52.953Z,12692
2016-05-03T07:39:52.941Z,12792
2016-05-03T07:40:52.896Z,13640
2016-05-03T07:41:52.899Z,14924
2016-05-03T07:42:52.856Z,20480
2016-05-03T07:43:52.686Z,23424
2016-05-03T07:44:52.673Z,19072
2016-05-03T07:45:52.644Z,22496
2016-05-03T07:46:52.772Z,16764
2016-05-03T07:47:52.759Z,52192
2016-05-03T07:48:52.731Z,79072
2016-05-03T07:49:52.717Z,83104
2016-05-03T07:50:52.533Z,80800
2016-05-03T07:51:52.520Z,42560
2016-05-03T07:52:54.678Z,64832
2016-05-03T07:53:52.635Z,33344
2016-05-03T07:54:52.622Z,45120
2016-05-03T07:55:52.609Z,79776
2016-05-03T07:56:52.596Z,81280
2016-05-03T07:57:52.566Z,80640
2016-05-03T07:58:53.288Z,80256
2016-05-03T07:59:52.541Z,88512
2016-05-03T08:00:52.513Z,94112
2016-05-03T08:01:52.344Z,23968
2016-05-03T08:02:52.331Z,24064
2016-05-03T08:03:52.318Z,11852
2016-05-03T08:04:52.461Z,11256
2016-05-03T08:05:52.433Z,17544
2016-05-03T08:06:52.435Z,17352
2016-05-03T08:07:52.266Z,9204
2016-05-03T08:08:52.222Z,8936
2016-05-03T08:09:52.381Z,13156
2016-05-03T08:10:52.351Z,15680
2016-05-03T08:11:52.340Z,11768
2016-05-03T08:12:52.326Z,6272
2016-05-03T08:13:52.156Z,8184
2016-05-03T08:14:52.285Z,30144
2016-05-03T08:15:52.115Z,29504
2016-05-03T08:16:52.259Z,59296
2016-05-03T08:17:51.934Z,44928
2016-05-03T08:18:52.077Z,35008
2016-05-03T08:19:52.205Z,24160
2016-05-03T08:20:52.191Z,23968
2016-05-03T08:21:52.022Z,44480
2016-05-03T08:22:52.009Z,66944
2016-05-03T08:23:52.137Z,46592
2016-05-03T08:24:52.124Z,47584
2016-05-03T08:25:51.799Z,61632
2016-05-03T08:26:52.099Z,58528
2016-05-03T08:27:52.069Z,14588
2016-05-03T08:28:52.057Z,14620
2016-05-03T08:29:52.028Z,16416
2016-05-03T08:30:52.031Z,16448
2016-05-03T08:31:52.018Z,68544
2016-05-03T08:32:51.849Z,57504
2016-05-03T08:33:51.976Z,80544
2016-05-03T08:34:51.979Z,80288
2016-05-03T08:35:51.935Z,82752
2016-05-03T08:36:51.953Z,83712
2016-05-03T08:37:51.924Z,82848
2016-05-03T08:38:51.927Z,77696
2016-05-03T08:39:51.883Z,72160
2016-05-03T08:40:51.886Z,64736
2016-05-03T08:41:51.857Z,16456
2016-05-03T08:42:51.703Z,18460
2016-05-03T08:43:51.847Z,45056
2016-05-03T08:44:51.679Z,10960
2016-05-03T08:45:51.665Z,11028
2016-05-03T08:46:51.808Z,14180
2016-05-03T08:47:51.624Z,12628
2016-05-03T08:48:51.626Z,11704
2016-05-03T08:49:51.769Z,11924
2016-05-03T08:50:51.741Z,11700
2016-05-03T08:51:51.587Z,11124
2016-05-03T08:52:51.418Z,10556
2016-05-03T08:53:51.717Z,9564
2016-05-03T08:54:51.689Z,10312
2016-05-03T08:55:51.505Z,10768
2016-05-03T08:56:51.508Z,9732
2016-05-03T08:57:51.650Z,12396
2016-05-03T08:58:51.481Z,15860
2016-05-03T08:59:51.453Z,11060
2016-05-03T09:00:51.346Z,7816
2016-05-03T09:01:51.568Z,9792
2016-05-03T09:02:51.570Z,13420
2016-05-03T09:03:51.526Z,12436
2016-05-03T09:04:51.388Z,13804
2016-05-03T09:05:51.344Z,14924
2016-05-03T09:06:51.471Z,14372
2016-05-03T09:07:51.521Z,13908
2016-05-03T09:08:51.477Z,12304
2016-05-03T09:09:51.276Z,9844
2016-05-03T09:10:51.404Z,8076
2016-05-03T09:11:51.391Z,8024
2016-05-03T09:12:51.379Z,8020
2016-05-03T09:13:51.365Z,9020
2016-05-03T09:14:51.337Z,9708
2016-05-03T09:15:51.308Z,11176
2016-05-03T09:16:51.139Z,11156
2016-05-03T09:17:51.282Z,10152
2016-05-03T09:18:51.253Z,8416
2016-05-03T09:19:51.241Z,7940
2016-05-03T09:20:51.212Z,7740
2016-05-03T09:21:51.042Z,7456
2016-05-03T09:22:51.592Z,8088
2016-05-03T09:23:51.173Z,10208
2016-05-03T09:24:50.833Z,9696
2016-05-03T09:25:50.975Z,10576
2016-05-03T09:26:50.963Z,10112
2016-05-03T09:27:51.075Z,10284
2016-05-03T09:28:51.062Z,8764
2016-05-03T09:29:51.049Z,10252
2016-05-03T09:30:50.864Z,9960
2016-05-03T09:31:50.835Z,10116
2016-05-03T09:32:50.979Z,10524
2016-05-03T09:33:50.965Z,10072
2016-05-03T09:34:50.782Z,12628
2016-05-03T09:35:50.924Z,15812
2016-05-03T09:36:50.912Z,16484
2016-05-03T09:37:50.836Z,18816
2016-05-03T09:38:50.713Z,18140
2016-05-03T09:39:50.545Z,17084
2016-05-03T09:40:50.673Z,18624
2016-05-03T09:41:50.675Z,20672
2016-05-03T09:42:50.787Z,18592
2016-05-03T09:43:50.602Z,16316
2016-05-03T09:44:50.746Z,16252
2016-05-03T09:45:50.576Z,16300
2016-05-03T09:46:50.720Z,17232
2016-05-03T09:47:50.692Z,16828
2016-05-03T09:48:50.522Z,15452
2016-05-03T09:49:50.493Z,14560
2016-05-03T09:50:50.620Z,14660
2016-05-03T09:51:50.624Z,14416
2016-05-03T09:52:50.455Z,13796
2016-05-03T09:53:50.566Z,14376
2016-05-03T09:54:50.554Z,15880
2016-05-03T09:55:50.228Z,16864
2016-05-03T09:56:50.528Z,17924
2016-05-03T09:57:50.500Z,17976
2016-05-03T09:58:50.314Z,17548
2016-05-03T09:59:50.458Z,17596
2016-05-03T10:00:50.444Z,15656
2016-05-03T10:01:50.401Z,14004
2016-05-03T10:02:50.388Z,13152
2016-05-03T10:03:50.077Z,13216
2016-05-03T10:04:50.362Z,13156
2016-05-03T10:05:50.193Z,12692
2016-05-03T10:06:50.320Z,12068
2016-05-03T10:07:51.385Z,11420
2016-05-03T10:08:50.279Z,10576
2016-05-03T10:09:50.109Z,9940
2016-05-03T10:10:50.237Z,9880
2016-05-03T10:11:50.209Z,10184
2016-05-03T10:12:50.196Z,10532
2016-05-03T10:13:50.167Z,10660
2016-05-03T10:14:50.154Z,10376
2016-05-03T10:15:49.845Z,9824
2016-05-03T10:16:50.113Z,9248
2016-05-03T10:17:50.100Z,8792
2016-05-03T10:18:50.071Z,8320
2016-05-03T10:19:50.073Z,7904
2016-05-03T10:20:50.031Z,7688
2016-05-03T10:21:50.017Z,7604
2016-05-03T10:22:50.503Z,7536
2016-05-03T10:23:49.834Z,7472
2016-05-03T10:24:49.962Z,7552
2016-05-03T10:25:49.934Z,7600
2016-05-03T10:26:49.984Z,7304
2016-05-03T10:27:49.924Z,6972
2016-05-03T10:28:49.864Z,6916
2016-05-03T10:29:49.851Z,7100
2016-05-03T10:30:49.838Z,6688
2016-05-03T10:31:49.653Z,6396
2016-05-03T10:32:49.641Z,6064
2016-05-03T10:33:49.611Z,6032
2016-05-03T10:34:49.755Z,6048
2016-05-03T10:35:49.727Z,6112
2016-05-03T10:36:49.574Z,6216
2016-05-03T10:37:49.669Z,6616
2016-05-03T10:38:49.657Z,7204
2016-05-03T10:39:49.644Z,8028
2016-05-03T10:40:49.474Z,8716
2016-05-03T10:41:49.618Z,9676
2016-05-03T10:42:49.433Z,11072
2016-05-03T10:43:49.576Z,12888
2016-05-03T10:44:49.548Z,14736
2016-05-03T10:45:49.379Z,16756
2016-05-03T10:46:49.350Z,16708
2016-05-03T10:47:49.493Z,13576
2016-05-03T10:48:49.480Z,11412
2016-05-03T10:49:49.295Z,10824
2016-05-03T10:50:49.282Z,11416
2016-05-03T10:51:49.254Z,11768
2016-05-03T10:52:49.398Z,11672
2016-05-03T10:53:49.353Z,10756
2016-05-03T10:54:49.339Z,9936
2016-05-03T10:55:49.328Z,9252
2016-05-03T10:56:49.314Z,8616
2016-05-03T10:57:49.145Z,8048
2016-05-03T10:58:49.258Z,7880
2016-05-03T10:59:49.244Z,8120
2016-05-03T11:00:49.216Z,8508
2016-05-03T11:01:49.203Z,8852
2016-05-03T11:02:49.033Z,8980
2016-05-03T11:03:49.161Z,8836
2016-05-03T11:04:49.149Z,8200
2016-05-03T11:05:49.119Z,7868
2016-05-03T11:06:48.950Z,8608
2016-05-03T11:07:49.328Z,10188
2016-05-03T11:08:49.065Z,13828
2016-05-03T11:09:49.038Z,16632
2016-05-03T11:10:49.024Z,15688
2016-05-03T11:11:48.838Z,13912
2016-05-03T11:12:48.827Z,11580
2016-05-03T11:13:48.953Z,9536
2016-05-03T11:14:48.940Z,8760
2016-05-03T11:15:48.928Z,8240
2016-05-03T11:16:48.759Z,7856
2016-05-03T11:17:48.887Z,7860
2016-05-03T11:18:48.857Z,8224
2016-05-03T11:19:48.860Z,9004
2016-05-03T11:20:48.675Z,9840
2016-05-03T11:21:48.648Z,10592
2016-05-03T11:22:49.697Z,11264
2016-05-03T11:23:48.606Z,11992
2016-05-03T11:24:48.593Z,12744
2016-05-03T11:25:48.580Z,13564
2016-05-03T11:26:48.708Z,14440
2016-05-03T11:27:48.523Z,14208
2016-05-03T11:28:48.525Z,13656
2016-05-03T11:29:48.497Z,13356
2016-05-03T11:30:48.484Z,13156
2016-05-03T11:31:48.611Z,13736
2016-05-03T11:32:48.599Z,15672
2016-05-03T11:33:48.570Z,17400
2016-05-03T11:34:48.541Z,17120
2016-05-03T11:35:48.528Z,16764
2016-05-03T11:36:48.500Z,17008
2016-05-03T11:37:49.237Z,16396
2016-05-03T11:38:48.458Z,15556
2016-05-03T11:39:48.446Z,15544
2016-05-03T11:40:48.432Z,15124
2016-05-03T11:41:48.420Z,12156
2016-05-03T11:42:48.407Z,9584
2016-05-03T11:43:48.363Z,8332
2016-05-03T11:44:48.210Z,7848
2016-05-03T11:45:48.337Z,8052
2016-05-03T11:46:48.307Z,8844
2016-05-03T11:47:48.154Z,9628
2016-05-03T11:48:48.767Z,9876
2016-05-03T11:49:48.113Z,9656
2016-05-03T11:50:48.241Z,9596
2016-05-03T11:51:48.212Z,9040
2016-05-03T11:52:48.059Z,8232
2016-05-03T11:53:48.186Z,8268
2016-05-03T11:54:48.190Z,8104
2016-05-03T11:55:48.129Z,8388
2016-05-03T11:56:48.132Z,8808
2016-05-03T11:57:48.087Z,9340
2016-05-03T11:58:48.106Z,9808
2016-05-03T11:59:48.062Z,10244
2016-05-03T12:00:47.892Z,11100
2016-05-03T12:01:48.021Z,12548
2016-05-03T12:02:47.695Z,14336
2016-05-03T12:03:47.978Z,15524
2016-05-03T12:04:47.825Z,15776
2016-05-03T12:05:47.781Z,14868
2016-05-03T12:06:47.925Z,15320
2016-05-03T12:07:48.787Z,15708
2016-05-03T12:08:47.742Z,17204
2016-05-03T12:09:47.714Z,16456
2016-05-03T12:10:47.842Z,13256
2016-05-03T12:11:47.672Z,10548
2016-05-03T12:12:47.660Z,8256
2016-05-03T12:13:47.630Z,6864
2016-05-03T12:14:47.775Z,6592
2016-05-03T12:15:47.761Z,6764
2016-05-03T12:16:47.732Z,7220
2016-05-03T12:17:47.720Z,7944
2016-05-03T12:18:47.551Z,8712
2016-05-03T12:19:47.679Z,9724
2016-05-03T12:20:47.650Z,10220
2016-05-03T12:21:47.637Z,10964
2016-05-03T12:22:47.905Z,11332
2016-05-03T12:23:50.908Z,11104
2016-05-03T12:24:47.599Z,10496
2016-05-03T12:25:47.570Z,10308
2016-05-03T12:26:47.540Z,10240
2016-05-03T12:27:47.200Z,10104
2016-05-03T12:28:47.500Z,9648
2016-05-03T12:29:47.470Z,9072
2016-05-03T12:30:47.301Z,8564
2016-05-03T12:31:47.445Z,7932
2016-05-03T12:32:47.417Z,7156
2016-05-03T12:33:47.248Z,6424
2016-05-03T12:34:47.391Z,5732
2016-05-03T12:35:47.361Z,5080
2016-05-03T12:36:47.349Z,4700
2016-05-03T12:37:47.524Z,4828
2016-05-03T12:38:47.558Z,4756
2016-05-03T12:39:47.139Z,4668
2016-05-03T12:40:47.282Z,4400
2016-05-03T12:41:46.941Z,4400
2016-05-03T12:42:47.224Z,3916
2016-05-03T12:43:47.211Z,3996
2016-05-03T12:44:47.182Z,4012
2016-05-03T12:45:47.155Z,4384
2016-05-03T12:46:47.158Z,4856
2016-05-03T12:47:48.894Z,5056
2016-05-03T12:48:47.335Z,5296
2016-05-03T12:49:48.368Z,5448
2016-05-03T12:50:50.043Z,5720
2016-05-03T12:51:47.045Z,6176
2016-05-03T12:52:46.907Z,6688
2016-05-03T12:53:46.848Z,8000
2016-05-03T12:54:46.990Z,8856
2016-05-03T12:55:46.665Z,8680
2016-05-03T12:56:46.950Z,7464
2016-05-03T12:57:46.765Z,6344
2016-05-03T12:58:46.909Z,5548
2016-05-03T12:59:46.865Z,5020
2016-05-03T13:00:46.867Z,4776
2016-05-03T13:01:46.839Z,4472
2016-05-03T13:02:46.825Z,3948
2016-05-03T13:03:46.797Z,3864
2016-05-03T13:04:46.628Z,3880
2016-05-03T13:05:46.755Z,3908
2016-05-03T13:06:46.742Z,3916
2016-05-03T13:07:46.416Z,3900
2016-05-03T13:08:46.544Z,3840
2016-05-03T13:09:46.672Z,3756
2016-05-03T13:10:46.644Z,3728
2016-05-03T13:11:46.631Z,3744
2016-05-03T13:12:46.321Z,3792
2016-05-03T13:13:46.589Z,3892
2016-05-03T13:14:46.592Z,3924
2016-05-03T13:15:46.547Z,4084
2016-05-03T13:16:46.535Z,4304
2016-05-03T13:17:46.365Z,4336
2016-05-03T13:18:46.493Z,4480
2016-05-03T13:19:46.324Z,4272
2016-05-03T13:20:50.311Z,4692
2016-05-03T13:21:46.438Z,5060
2016-05-03T13:22:46.271Z,5416
2016-05-03T13:23:46.288Z,5516
2016-05-03T13:24:46.375Z,4612
2016-05-03T13:25:46.049Z,4364
2016-05-03T13:26:46.318Z,4068
2016-05-03T13:27:46.342Z,3760
2016-05-03T13:28:46.353Z,3576
2016-05-03T13:29:46.226Z,3572
2016-05-03T13:30:46.394Z,3760
2016-05-03T13:31:46.297Z,3980
2016-05-03T13:32:46.435Z,4152
2016-05-03T13:33:46.421Z,4436
2016-05-03T13:34:46.252Z,4848
2016-05-03T13:35:46.409Z,5748